sensor_id;sensor_type;location;lat;lon;timestamp;temperature;humidity
44607;DHT22;30315;46.072;14.474;2023-04-23T00:01:13;16.40;60.10
44607;DHT22;30315;46.072;14.474;2023-04-23T00:03:43;16.30;60.30
44607;DHT22;30315;46.072;14.474;2023-04-23T00:06:11;16.30;60.20
44607;DHT22;30315;46.072;14.474;2023-04-23T00:08:42;16.20;60.00
44607;DHT22;30315;46.072;14.474;2023-04-23T00:11:09;16.20;60.00
44607;DHT22;30315;46.072;14.474;2023-04-23T00:13:37;16.10;60.40
44607;DHT22;30315;46.072;14.474;2023-04-23T00:16:04;16.10;60.60
44607;DHT22;30315;46.072;14.474;2023-04-23T00:18:32;16.00;60.40
44607;DHT22;30315;46.072;14.474;2023-04-23T00:20:59;15.90;60.70
44607;DHT22;30315;46.072;14.474;2023-04-23T00:23:27;15.90;60.80
44607;DHT22;30315;46.072;14.474;2023-04-23T00:25:54;15.90;61.00
44607;DHT22;30315;46.072;14.474;2023-04-23T00:28:21;15.80;61.10
44607;DHT22;30315;46.072;14.474;2023-04-23T00:30:48;15.80;61.30
44607;DHT22;30315;46.072;14.474;2023-04-23T00:33:15;15.80;61.70
44607;DHT22;30315;46.072;14.474;2023-04-23T00:35:42;15.70;61.80
44607;DHT22;30315;46.072;14.474;2023-04-23T00:38:09;15.70;61.70
44607;DHT22;30315;46.072;14.474;2023-04-23T00:40:36;15.70;61.60
44607;DHT22;30315;46.072;14.474;2023-04-23T00:43:03;15.70;61.50
44607;DHT22;30315;46.072;14.474;2023-04-23T00:45:30;15.60;61.50
44607;DHT22;30315;46.072;14.474;2023-04-23T00:47:57;15.60;61.50
44607;DHT22;30315;46.072;14.474;2023-04-23T00:50:25;15.60;61.50
44607;DHT22;30315;46.072;14.474;2023-04-23T00:52:52;15.60;61.50
44607;DHT22;30315;46.072;14.474;2023-04-23T00:55:19;15.60;61.30
44607;DHT22;30315;46.072;14.474;2023-04-23T00:57:47;15.50;61.40
44607;DHT22;30315;46.072;14.474;2023-04-23T01:00:15;15.40;61.60
44607;DHT22;30315;46.072;14.474;2023-04-23T01:02:42;15.40;61.80
44607;DHT22;30315;46.072;14.474;2023-04-23T01:05:10;15.40;62.10
44607;DHT22;30315;46.072;14.474;2023-04-23T01:07:40;15.40;62.30
44607;DHT22;30315;46.072;14.474;2023-04-23T01:10:08;15.40;62.20
44607;DHT22;30315;46.072;14.474;2023-04-23T01:12:36;15.30;62.20
44607;DHT22;30315;46.072;14.474;2023-04-23T01:15:04;15.30;62.20
44607;DHT22;30315;46.072;14.474;2023-04-23T01:17:32;15.30;62.20
44607;DHT22;30315;46.072;14.474;2023-04-23T01:20:00;15.30;62.30
44607;DHT22;30315;46.072;14.474;2023-04-23T01:22:27;15.30;62.40
44607;DHT22;30315;46.072;14.474;2023-04-23T01:24:54;15.30;62.40
44607;DHT22;30315;46.072;14.474;2023-04-23T01:27:21;15.30;62.40
44607;DHT22;30315;46.072;14.474;2023-04-23T01:29:51;15.20;62.40
44607;DHT22;30315;46.072;14.474;2023-04-23T01:32:18;15.20;63.50
44607;DHT22;30315;46.072;14.474;2023-04-23T01:34:47;15.10;62.40
44607;DHT22;30315;46.072;14.474;2023-04-23T01:37:15;15.20;62.50
44607;DHT22;30315;46.072;14.474;2023-04-23T01:39:42;15.10;62.40
44607;DHT22;30315;46.072;14.474;2023-04-23T01:42:09;15.10;62.40
44607;DHT22;30315;46.072;14.474;2023-04-23T01:44:36;15.10;62.60
44607;DHT22;30315;46.072;14.474;2023-04-23T01:47:04;15.10;62.60
44607;DHT22;30315;46.072;14.474;2023-04-23T01:49:33;15.00;62.30
44607;DHT22;30315;46.072;14.474;2023-04-23T01:52:00;15.00;62.30
44607;DHT22;30315;46.072;14.474;2023-04-23T01:54:26;15.00;62.00
44607;DHT22;30315;46.072;14.474;2023-04-23T01:56:53;14.90;61.90
44607;DHT22;30315;46.072;14.474;2023-04-23T01:59:21;14.90;62.00
44607;DHT22;30315;46.072;14.474;2023-04-23T02:01:49;14.90;62.20
44607;DHT22;30315;46.072;14.474;2023-04-23T02:04:18;14.90;62.40
44607;DHT22;30315;46.072;14.474;2023-04-23T02:06:47;14.80;62.30
44607;DHT22;30315;46.072;14.474;2023-04-23T02:09:15;14.80;62.40
44607;DHT22;30315;46.072;14.474;2023-04-23T02:11:42;14.70;62.50
44607;DHT22;30315;46.072;14.474;2023-04-23T02:14:09;14.70;62.70
44607;DHT22;30315;46.072;14.474;2023-04-23T02:16:36;14.70;62.60
44607;DHT22;30315;46.072;14.474;2023-04-23T02:21:52;14.70;63.00
44607;DHT22;30315;46.072;14.474;2023-04-23T02:24:19;14.60;62.90
44607;DHT22;30315;46.072;14.474;2023-04-23T02:26:46;14.60;62.90
44607;DHT22;30315;46.072;14.474;2023-04-23T02:29:14;14.60;62.70
44607;DHT22;30315;46.072;14.474;2023-04-23T02:31:41;14.60;62.50
44607;DHT22;30315;46.072;14.474;2023-04-23T02:34:08;14.60;62.50
44607;DHT22;30315;46.072;14.474;2023-04-23T02:36:35;14.50;62.60
44607;DHT22;30315;46.072;14.474;2023-04-23T02:39:02;14.50;62.90
44607;DHT22;30315;46.072;14.474;2023-04-23T02:41:29;14.40;62.70
44607;DHT22;30315;46.072;14.474;2023-04-23T02:43:56;14.40;62.60
44607;DHT22;30315;46.072;14.474;2023-04-23T02:46:23;14.40;62.90
44607;DHT22;30315;46.072;14.474;2023-04-23T02:48:50;14.30;63.00
44607;DHT22;30315;46.072;14.474;2023-04-23T02:51:17;14.30;63.10
44607;DHT22;30315;46.072;14.474;2023-04-23T02:53:44;14.30;63.00
44607;DHT22;30315;46.072;14.474;2023-04-23T02:56:11;14.30;63.00
44607;DHT22;30315;46.072;14.474;2023-04-23T02:58:37;14.30;63.10
44607;DHT22;30315;46.072;14.474;2023-04-23T03:01:05;14.20;62.90
44607;DHT22;30315;46.072;14.474;2023-04-23T03:03:32;14.20;63.00
44607;DHT22;30315;46.072;14.474;2023-04-23T03:06:02;14.10;63.20
44607;DHT22;30315;46.072;14.474;2023-04-23T03:08:29;14.10;63.30
44607;DHT22;30315;46.072;14.474;2023-04-23T03:10:56;14.10;63.30
44607;DHT22;30315;46.072;14.474;2023-04-23T03:13:24;14.10;63.10
44607;DHT22;30315;46.072;14.474;2023-04-23T03:15:52;14.10;62.90
44607;DHT22;30315;46.072;14.474;2023-04-23T03:18:20;14.10;63.10
44607;DHT22;30315;46.072;14.474;2023-04-23T03:20:50;14.10;63.10
44607;DHT22;30315;46.072;14.474;2023-04-23T03:23:17;14.00;63.00
44607;DHT22;30315;46.072;14.474;2023-04-23T03:25:45;14.00;63.10
44607;DHT22;30315;46.072;14.474;2023-04-23T03:28:12;13.90;62.90
44607;DHT22;30315;46.072;14.474;2023-04-23T03:30:39;13.90;63.00
44607;DHT22;30315;46.072;14.474;2023-04-23T03:33:07;13.90;62.90
44607;DHT22;30315;46.072;14.474;2023-04-23T03:35:34;13.80;63.00
44607;DHT22;30315;46.072;14.474;2023-04-23T03:38:04;13.80;62.80
44607;DHT22;30315;46.072;14.474;2023-04-23T03:40:33;13.80;63.10
44607;DHT22;30315;46.072;14.474;2023-04-23T03:43:02;13.80;63.00
44607;DHT22;30315;46.072;14.474;2023-04-23T03:46:02;13.70;63.30
44607;DHT22;30315;46.072;14.474;2023-04-23T03:48:32;13.70;63.30
44607;DHT22;30315;46.072;14.474;2023-04-23T03:51:03;13.70;63.30
44607;DHT22;30315;46.072;14.474;2023-04-23T03:53:49;13.60;63.20
44607;DHT22;30315;46.072;14.474;2023-04-23T03:56:33;13.60;63.40
44607;DHT22;30315;46.072;14.474;2023-04-23T03:59:35;13.60;63.60
44607;DHT22;30315;46.072;14.474;2023-04-23T04:02:03;13.70;63.80
44607;DHT22;30315;46.072;14.474;2023-04-23T04:04:30;13.60;63.90
44607;DHT22;30315;46.072;14.474;2023-04-23T04:06:58;13.60;63.80
44607;DHT22;30315;46.072;14.474;2023-04-23T04:09:28;13.60;63.70
44607;DHT22;30315;46.072;14.474;2023-04-23T04:12:00;13.50;63.50
44607;DHT22;30315;46.072;14.474;2023-04-23T04:14:27;13.50;63.80
44607;DHT22;30315;46.072;14.474;2023-04-23T04:16:54;13.50;63.80
44607;DHT22;30315;46.072;14.474;2023-04-23T04:19:21;13.40;63.70
44607;DHT22;30315;46.072;14.474;2023-04-23T04:21:48;13.40;63.60
44607;DHT22;30315;46.072;14.474;2023-04-23T04:24:15;13.40;63.70
44607;DHT22;30315;46.072;14.474;2023-04-23T04:26:43;13.40;63.90
44607;DHT22;30315;46.072;14.474;2023-04-23T04:29:11;13.40;64.10
44607;DHT22;30315;46.072;14.474;2023-04-23T04:31:38;13.40;64.00
44607;DHT22;30315;46.072;14.474;2023-04-23T04:34:05;13.40;64.00
44607;DHT22;30315;46.072;14.474;2023-04-23T04:36:34;13.40;64.10
44607;DHT22;30315;46.072;14.474;2023-04-23T04:39:01;13.40;63.90
44607;DHT22;30315;46.072;14.474;2023-04-23T04:41:29;13.40;64.10
44607;DHT22;30315;46.072;14.474;2023-04-23T04:43:56;13.30;64.30
44607;DHT22;30315;46.072;14.474;2023-04-23T04:46:24;13.40;64.50
44607;DHT22;30315;46.072;14.474;2023-04-23T04:48:55;13.40;64.50
44607;DHT22;30315;46.072;14.474;2023-04-23T04:51:22;13.40;64.70
44607;DHT22;30315;46.072;14.474;2023-04-23T04:53:49;13.40;64.60
44607;DHT22;30315;46.072;14.474;2023-04-23T04:56:16;13.40;64.60
44607;DHT22;30315;46.072;14.474;2023-04-23T04:58:43;13.50;64.60
44607;DHT22;30315;46.072;14.474;2023-04-23T05:01:10;13.50;64.70
44607;DHT22;30315;46.072;14.474;2023-04-23T05:03:39;13.50;64.50
44607;DHT22;30315;46.072;14.474;2023-04-23T05:06:06;13.50;64.40
44607;DHT22;30315;46.072;14.474;2023-04-23T05:08:33;13.60;65.00
44607;DHT22;30315;46.072;14.474;2023-04-23T05:11:00;13.50;65.60
44607;DHT22;30315;46.072;14.474;2023-04-23T05:13:27;13.60;65.30
44607;DHT22;30315;46.072;14.474;2023-04-23T05:15:54;13.60;65.20
44607;DHT22;30315;46.072;14.474;2023-04-23T05:18:21;13.60;65.50
44607;DHT22;30315;46.072;14.474;2023-04-23T05:20:48;13.70;65.60
44607;DHT22;30315;46.072;14.474;2023-04-23T05:23:15;13.60;65.50
44607;DHT22;30315;46.072;14.474;2023-04-23T05:25:42;13.70;65.80
44607;DHT22;30315;46.072;14.474;2023-04-23T05:28:09;13.70;66.00
44607;DHT22;30315;46.072;14.474;2023-04-23T05:30:36;13.80;66.10
44607;DHT22;30315;46.072;14.474;2023-04-23T05:33:03;13.80;66.10
44607;DHT22;30315;46.072;14.474;2023-04-23T05:35:30;13.80;66.00
44607;DHT22;30315;46.072;14.474;2023-04-23T05:37:57;13.80;65.90
44607;DHT22;30315;46.072;14.474;2023-04-23T05:40:24;13.90;66.20
44607;DHT22;30315;46.072;14.474;2023-04-23T05:42:51;13.90;66.40
44607;DHT22;30315;46.072;14.474;2023-04-23T05:45:18;13.90;66.20
44607;DHT22;30315;46.072;14.474;2023-04-23T05:47:45;13.90;66.00
44607;DHT22;30315;46.072;14.474;2023-04-23T05:50:12;13.90;65.90
44607;DHT22;30315;46.072;14.474;2023-04-23T05:52:39;14.00;66.20
44607;DHT22;30315;46.072;14.474;2023-04-23T05:55:06;14.00;66.40
44607;DHT22;30315;46.072;14.474;2023-04-23T05:57:36;14.10;66.20
44607;DHT22;30315;46.072;14.474;2023-04-23T06:00:04;14.10;66.40
44607;DHT22;30315;46.072;14.474;2023-04-23T06:02:38;14.10;66.70
44607;DHT22;30315;46.072;14.474;2023-04-23T06:05:06;14.20;66.50
44607;DHT22;30315;46.072;14.474;2023-04-23T06:07:33;14.20;66.40
44607;DHT22;30315;46.072;14.474;2023-04-23T06:10:01;14.20;66.40
44607;DHT22;30315;46.072;14.474;2023-04-23T06:12:29;14.30;66.50
44607;DHT22;30315;46.072;14.474;2023-04-23T06:14:56;14.40;66.60
44607;DHT22;30315;46.072;14.474;2023-04-23T06:17:24;14.50;66.60
44607;DHT22;30315;46.072;14.474;2023-04-23T06:19:57;14.50;66.50
44607;DHT22;30315;46.072;14.474;2023-04-23T06:22:27;14.50;66.30
44607;DHT22;30315;46.072;14.474;2023-04-23T06:24:54;14.50;66.30
44607;DHT22;30315;46.072;14.474;2023-04-23T06:27:22;14.60;66.30
44607;DHT22;30315;46.072;14.474;2023-04-23T06:29:52;14.60;66.20
44607;DHT22;30315;46.072;14.474;2023-04-23T06:32:20;14.60;67.00
44607;DHT22;30315;46.072;14.474;2023-04-23T06:34:47;14.70;66.80
44607;DHT22;30315;46.072;14.474;2023-04-23T06:37:26;14.80;67.10
44607;DHT22;30315;46.072;14.474;2023-04-23T06:39:56;15.00;67.40
44607;DHT22;30315;46.072;14.474;2023-04-23T06:42:23;15.00;66.60
44607;DHT22;30315;46.072;14.474;2023-04-23T06:45:11;15.10;66.50
44607;DHT22;30315;46.072;14.474;2023-04-23T06:47:39;15.20;66.50
44607;DHT22;30315;46.072;14.474;2023-04-23T06:50:06;15.30;66.30
44607;DHT22;30315;46.072;14.474;2023-04-23T06:52:34;15.30;66.10
44607;DHT22;30315;46.072;14.474;2023-04-23T06:55:02;15.50;66.20
44607;DHT22;30315;46.072;14.474;2023-04-23T06:57:34;15.50;66.30
44607;DHT22;30315;46.072;14.474;2023-04-23T07:00:12;15.60;66.00
44607;DHT22;30315;46.072;14.474;2023-04-23T07:02:41;15.80;65.80
44607;DHT22;30315;46.072;14.474;2023-04-23T07:05:08;15.80;66.00
44607;DHT22;30315;46.072;14.474;2023-04-23T07:07:36;15.90;65.90
44607;DHT22;30315;46.072;14.474;2023-04-23T07:10:04;16.00;65.60
44607;DHT22;30315;46.072;14.474;2023-04-23T07:12:31;16.10;65.50
44607;DHT22;30315;46.072;14.474;2023-04-23T07:14:58;16.20;65.50
44607;DHT22;30315;46.072;14.474;2023-04-23T07:17:25;16.30;65.40
44607;DHT22;30315;46.072;14.474;2023-04-23T07:19:52;16.30;65.20
44607;DHT22;30315;46.072;14.474;2023-04-23T07:22:19;16.40;65.20
44607;DHT22;30315;46.072;14.474;2023-04-23T07:24:46;16.50;64.50
44607;DHT22;30315;46.072;14.474;2023-04-23T07:27:13;16.60;64.60
44607;DHT22;30315;46.072;14.474;2023-04-23T07:29:40;16.60;64.30
44607;DHT22;30315;46.072;14.474;2023-04-23T07:32:07;16.70;64.50
44607;DHT22;30315;46.072;14.474;2023-04-23T07:34:34;16.80;64.50
44607;DHT22;30315;46.072;14.474;2023-04-23T07:37:04;16.80;64.40
44607;DHT22;30315;46.072;14.474;2023-04-23T07:39:31;16.90;64.60
44607;DHT22;30315;46.072;14.474;2023-04-23T07:41:59;17.00;64.50
44607;DHT22;30315;46.072;14.474;2023-04-23T07:44:26;17.10;64.10
44607;DHT22;30315;46.072;14.474;2023-04-23T07:46:53;17.10;64.00
44607;DHT22;30315;46.072;14.474;2023-04-23T07:49:20;17.20;64.20
44607;DHT22;30315;46.072;14.474;2023-04-23T07:51:47;17.30;64.10
44607;DHT22;30315;46.072;14.474;2023-04-23T07:54:14;17.30;64.10
44607;DHT22;30315;46.072;14.474;2023-04-23T07:56:41;17.40;63.80
44607;DHT22;30315;46.072;14.474;2023-04-23T07:59:09;17.50;64.00
44607;DHT22;30315;46.072;14.474;2023-04-23T08:01:36;17.60;63.60
44607;DHT22;30315;46.072;14.474;2023-04-23T08:04:03;17.60;63.60
44607;DHT22;30315;46.072;14.474;2023-04-23T08:06:30;17.70;63.60
44607;DHT22;30315;46.072;14.474;2023-04-23T08:09:00;17.80;63.60
44607;DHT22;30315;46.072;14.474;2023-04-23T08:11:32;17.90;63.30
44607;DHT22;30315;46.072;14.474;2023-04-23T08:13:59;18.00;62.90
44607;DHT22;30315;46.072;14.474;2023-04-23T08:16:27;18.00;62.70
44607;DHT22;30315;46.072;14.474;2023-04-23T08:18:56;18.20;62.30
44607;DHT22;30315;46.072;14.474;2023-04-23T08:21:33;18.20;61.80
44607;DHT22;30315;46.072;14.474;2023-04-23T08:24:00;18.20;61.90
44607;DHT22;30315;46.072;14.474;2023-04-23T08:26:29;18.30;61.90
44607;DHT22;30315;46.072;14.474;2023-04-23T08:28:56;18.40;62.20
44607;DHT22;30315;46.072;14.474;2023-04-23T08:31:23;18.40;62.30
44607;DHT22;30315;46.072;14.474;2023-04-23T08:33:53;18.50;61.90
44607;DHT22;30315;46.072;14.474;2023-04-23T08:36:20;18.60;61.70
44607;DHT22;30315;46.072;14.474;2023-04-23T08:38:47;18.70;61.40
44607;DHT22;30315;46.072;14.474;2023-04-23T08:41:14;18.70;60.70
44607;DHT22;30315;46.072;14.474;2023-04-23T08:43:46;18.70;60.20
44607;DHT22;30315;46.072;14.474;2023-04-23T08:46:16;18.80;60.00
44607;DHT22;30315;46.072;14.474;2023-04-23T08:48:44;18.80;60.10
44607;DHT22;30315;46.072;14.474;2023-04-23T08:51:17;18.90;60.50
44607;DHT22;30315;46.072;14.474;2023-04-23T08:53:50;19.00;60.50
44607;DHT22;30315;46.072;14.474;2023-04-23T08:56:19;19.10;60.20
44607;DHT22;30315;46.072;14.474;2023-04-23T08:58:48;19.20;61.60
44607;DHT22;30315;46.072;14.474;2023-04-23T09:01:16;19.40;61.20
44607;DHT22;30315;46.072;14.474;2023-04-23T09:03:44;19.50;60.20
44607;DHT22;30315;46.072;14.474;2023-04-23T09:06:12;19.50;59.60
44607;DHT22;30315;46.072;14.474;2023-04-23T09:08:39;19.50;59.60
44607;DHT22;30315;46.072;14.474;2023-04-23T09:11:06;19.60;59.40
44607;DHT22;30315;46.072;14.474;2023-04-23T09:13:34;19.60;59.10
44607;DHT22;30315;46.072;14.474;2023-04-23T09:16:04;19.70;59.30
44607;DHT22;30315;46.072;14.474;2023-04-23T09:18:31;19.70;59.30
44607;DHT22;30315;46.072;14.474;2023-04-23T09:20:58;19.70;59.30
44607;DHT22;30315;46.072;14.474;2023-04-23T09:23:26;19.70;59.20
44607;DHT22;30315;46.072;14.474;2023-04-23T09:25:55;19.80;59.00
44607;DHT22;30315;46.072;14.474;2023-04-23T09:28:34;19.80;59.00
44607;DHT22;30315;46.072;14.474;2023-04-23T09:31:04;19.90;59.20
44607;DHT22;30315;46.072;14.474;2023-04-23T09:33:34;20.00;59.70
44607;DHT22;30315;46.072;14.474;2023-04-23T09:36:14;20.00;59.30
44607;DHT22;30315;46.072;14.474;2023-04-23T09:38:41;20.10;59.40
44607;DHT22;30315;46.072;14.474;2023-04-23T09:41:24;20.10;59.40
44607;DHT22;30315;46.072;14.474;2023-04-23T09:43:53;20.10;59.30
44607;DHT22;30315;46.072;14.474;2023-04-23T09:46:36;20.20;59.40
44607;DHT22;30315;46.072;14.474;2023-04-23T09:49:05;20.20;59.80
44607;DHT22;30315;46.072;14.474;2023-04-23T09:51:47;20.30;59.20
44607;DHT22;30315;46.072;14.474;2023-04-23T09:54:19;20.40;59.40
44607;DHT22;30315;46.072;14.474;2023-04-23T09:56:53;20.40;59.10
44607;DHT22;30315;46.072;14.474;2023-04-23T09:59:25;20.40;59.00
44607;DHT22;30315;46.072;14.474;2023-04-23T10:02:12;20.50;58.80
44607;DHT22;30315;46.072;14.474;2023-04-23T10:04:39;20.60;58.70
44607;DHT22;30315;46.072;14.474;2023-04-23T10:07:08;20.60;58.70
44607;DHT22;30315;46.072;14.474;2023-04-23T10:09:42;20.60;58.40
44607;DHT22;30315;46.072;14.474;2023-04-23T10:12:10;20.70;58.00
44607;DHT22;30315;46.072;14.474;2023-04-23T10:14:59;20.80;58.20
44607;DHT22;30315;46.072;14.474;2023-04-23T10:17:26;20.80;58.20
44607;DHT22;30315;46.072;14.474;2023-04-23T10:19:54;20.90;57.60
44607;DHT22;30315;46.072;14.474;2023-04-23T10:22:22;20.90;57.70
44607;DHT22;30315;46.072;14.474;2023-04-23T10:24:52;21.10;57.40
44607;DHT22;30315;46.072;14.474;2023-04-23T10:27:28;21.20;57.20
44607;DHT22;30315;46.072;14.474;2023-04-23T10:30:16;21.20;57.00
44607;DHT22;30315;46.072;14.474;2023-04-23T10:32:44;21.30;56.90
44607;DHT22;30315;46.072;14.474;2023-04-23T10:35:13;21.40;56.20
44607;DHT22;30315;46.072;14.474;2023-04-23T10:37:42;21.40;56.00
44607;DHT22;30315;46.072;14.474;2023-04-23T10:40:17;21.50;55.90
44607;DHT22;30315;46.072;14.474;2023-04-23T10:42:46;21.70;55.70
44607;DHT22;30315;46.072;14.474;2023-04-23T10:45:18;21.70;54.70
44607;DHT22;30315;46.072;14.474;2023-04-23T10:47:52;21.80;54.80
44607;DHT22;30315;46.072;14.474;2023-04-23T10:50:26;21.90;54.50
44607;DHT22;30315;46.072;14.474;2023-04-23T10:52:54;22.00;54.20
44607;DHT22;30315;46.072;14.474;2023-04-23T10:55:24;22.00;53.90
44607;DHT22;30315;46.072;14.474;2023-04-23T10:58:00;22.10;53.80
44607;DHT22;30315;46.072;14.474;2023-04-23T11:00:49;22.10;53.00
44607;DHT22;30315;46.072;14.474;2023-04-23T11:03:31;22.10;52.90
44607;DHT22;30315;46.072;14.474;2023-04-23T11:06:08;22.20;52.80
44607;DHT22;30315;46.072;14.474;2023-04-23T11:08:50;22.20;52.50
44607;DHT22;30315;46.072;14.474;2023-04-23T11:11:42;22.30;52.50
44607;DHT22;30315;46.072;14.474;2023-04-23T11:14:12;22.30;51.90
44607;DHT22;30315;46.072;14.474;2023-04-23T11:16:47;22.30;52.20
44607;DHT22;30315;46.072;14.474;2023-04-23T11:19:16;22.40;52.30
44607;DHT22;30315;46.072;14.474;2023-04-23T11:22:15;22.50;52.50
44607;DHT22;30315;46.072;14.474;2023-04-23T11:24:49;22.30;51.60
44607;DHT22;30315;46.072;14.474;2023-04-23T11:27:22;22.60;51.30
44607;DHT22;30315;46.072;14.474;2023-04-23T11:29:53;22.50;51.10
44607;DHT22;30315;46.072;14.474;2023-04-23T11:32:35;22.50;51.00
44607;DHT22;30315;46.072;14.474;2023-04-23T11:35:07;22.10;50.20
44607;DHT22;30315;46.072;14.474;2023-04-23T11:38:15;22.30;50.90
44607;DHT22;30315;46.072;14.474;2023-04-23T11:40:46;22.30;50.90
44607;DHT22;30315;46.072;14.474;2023-04-23T11:43:22;22.10;50.60
44607;DHT22;30315;46.072;14.474;2023-04-23T11:45:51;22.20;50.80
44607;DHT22;30315;46.072;14.474;2023-04-23T11:49:00;22.00;50.50
44607;DHT22;30315;46.072;14.474;2023-04-23T11:54:28;22.20;50.60
44607;DHT22;30315;46.072;14.474;2023-04-23T11:57:10;22.30;50.20
44607;DHT22;30315;46.072;14.474;2023-04-23T11:59:38;22.40;50.30
44607;DHT22;30315;46.072;14.474;2023-04-23T12:02:07;22.60;50.50
44607;DHT22;30315;46.072;14.474;2023-04-23T12:08:45;22.70;49.90
44607;DHT22;30315;46.072;14.474;2023-04-23T12:11:23;23.00;49.70
44607;DHT22;30315;46.072;14.474;2023-04-23T12:14:05;23.10;49.80
44607;DHT22;30315;46.072;14.474;2023-04-23T12:16:52;23.30;48.80
44607;DHT22;30315;46.072;14.474;2023-04-23T12:19:27;23.20;48.40
44607;DHT22;30315;46.072;14.474;2023-04-23T12:22:34;23.20;48.40
44607;DHT22;30315;46.072;14.474;2023-04-23T12:28:34;23.10;48.00
44607;DHT22;30315;46.072;14.474;2023-04-23T12:31:28;23.10;48.20
44607;DHT22;30315;46.072;14.474;2023-04-23T12:34:11;23.10;48.60
44607;DHT22;30315;46.072;14.474;2023-04-23T12:36:44;23.20;48.40
44607;DHT22;30315;46.072;14.474;2023-04-23T12:39:19;23.10;47.60
44607;DHT22;30315;46.072;14.474;2023-04-23T12:42:03;23.30;47.90
44607;DHT22;30315;46.072;14.474;2023-04-23T12:44:39;23.30;47.60
44607;DHT22;30315;46.072;14.474;2023-04-23T12:47:14;23.40;48.00
44607;DHT22;30315;46.072;14.474;2023-04-23T12:49:53;23.40;47.50
44607;DHT22;30315;46.072;14.474;2023-04-23T12:52:31;23.50;48.00
44607;DHT22;30315;46.072;14.474;2023-04-23T12:55:03;23.40;47.30
44607;DHT22;30315;46.072;14.474;2023-04-23T12:57:34;23.30;47.10
44607;DHT22;30315;46.072;14.474;2023-04-23T13:00:02;23.40;47.20
44607;DHT22;30315;46.072;14.474;2023-04-23T13:02:33;23.30;47.20
44607;DHT22;30315;46.072;14.474;2023-04-23T13:05:02;23.30;47.40
44607;DHT22;30315;46.072;14.474;2023-04-23T13:07:29;23.30;47.30
44607;DHT22;30315;46.072;14.474;2023-04-23T13:09:57;23.30;47.20
44607;DHT22;30315;46.072;14.474;2023-04-23T13:12:25;23.30;47.70
44607;DHT22;30315;46.072;14.474;2023-04-23T13:14:53;23.30;48.00
44607;DHT22;30315;46.072;14.474;2023-04-23T13:17:22;23.40;47.50
44607;DHT22;30315;46.072;14.474;2023-04-23T13:19:51;23.40;47.40
44607;DHT22;30315;46.072;14.474;2023-04-23T13:22:21;23.60;47.70
44607;DHT22;30315;46.072;14.474;2023-04-23T13:24:57;23.70;48.20
44607;DHT22;30315;46.072;14.474;2023-04-23T13:27:27;23.90;47.70
44607;DHT22;30315;46.072;14.474;2023-04-23T13:29:55;24.10;47.10
44607;DHT22;30315;46.072;14.474;2023-04-23T13:32:23;24.20;46.60
44607;DHT22;30315;46.072;14.474;2023-04-23T13:34:53;24.40;47.00
44607;DHT22;30315;46.072;14.474;2023-04-23T13:37:26;24.50;45.40
44607;DHT22;30315;46.072;14.474;2023-04-23T13:39:57;24.60;44.90
44607;DHT22;30315;46.072;14.474;2023-04-23T13:42:25;24.60;45.10
44607;DHT22;30315;46.072;14.474;2023-04-23T13:44:55;24.70;44.60
44607;DHT22;30315;46.072;14.474;2023-04-23T13:47:27;24.70;44.40
44607;DHT22;30315;46.072;14.474;2023-04-23T13:49:58;24.60;43.90
44607;DHT22;30315;46.072;14.474;2023-04-23T13:52:27;24.60;44.10
44607;DHT22;30315;46.072;14.474;2023-04-23T13:54:56;24.50;44.20
44607;DHT22;30315;46.072;14.474;2023-04-23T13:57:24;24.60;44.70
44607;DHT22;30315;46.072;14.474;2023-04-23T13:59:54;24.60;44.10
44607;DHT22;30315;46.072;14.474;2023-04-23T14:02:25;24.70;44.20
44607;DHT22;30315;46.072;14.474;2023-04-23T14:04:53;25.10;43.80
44607;DHT22;30315;46.072;14.474;2023-04-23T14:07:21;24.50;43.40
44607;DHT22;30315;46.072;14.474;2023-04-23T14:09:49;24.60;42.90
44607;DHT22;30315;46.072;14.474;2023-04-23T14:12:20;24.60;42.90
44607;DHT22;30315;46.072;14.474;2023-04-23T14:15:09;24.50;43.30
44607;DHT22;30315;46.072;14.474;2023-04-23T14:17:41;24.50;43.50
44607;DHT22;30315;46.072;14.474;2023-04-23T14:20:12;24.60;43.30
44607;DHT22;30315;46.072;14.474;2023-04-23T14:22:42;24.70;43.20
44607;DHT22;30315;46.072;14.474;2023-04-23T14:25:29;24.70;43.00
44607;DHT22;30315;46.072;14.474;2023-04-23T14:29:07;24.60;42.90
44607;DHT22;30315;46.072;14.474;2023-04-23T14:31:25;24.70;43.30
44607;DHT22;30315;46.072;14.474;2023-04-23T14:33:56;24.90;43.20
44607;DHT22;30315;46.072;14.474;2023-04-23T14:36:25;24.90;42.70
44607;DHT22;30315;46.072;14.474;2023-04-23T14:38:52;24.90;42.60
44607;DHT22;30315;46.072;14.474;2023-04-23T14:41:19;24.80;42.50
44607;DHT22;30315;46.072;14.474;2023-04-23T14:43:50;24.70;42.70
44607;DHT22;30315;46.072;14.474;2023-04-23T14:46:17;24.60;42.50
44607;DHT22;30315;46.072;14.474;2023-04-23T14:48:50;24.50;42.70
44607;DHT22;30315;46.072;14.474;2023-04-23T14:51:23;24.40;42.40
44607;DHT22;30315;46.072;14.474;2023-04-23T14:54:07;24.50;43.10
44607;DHT22;30315;46.072;14.474;2023-04-23T14:56:35;24.60;43.10
44607;DHT22;30315;46.072;14.474;2023-04-23T14:59:03;24.80;43.30
44607;DHT22;30315;46.072;14.474;2023-04-23T15:01:36;24.90;43.10
44607;DHT22;30315;46.072;14.474;2023-04-23T15:04:04;25.10;43.00
44607;DHT22;30315;46.072;14.474;2023-04-23T15:06:35;25.40;43.00
44607;DHT22;30315;46.072;14.474;2023-04-23T15:09:03;25.70;41.70
44607;DHT22;30315;46.072;14.474;2023-04-23T15:11:31;25.80;41.60
44607;DHT22;30315;46.072;14.474;2023-04-23T15:16:38;26.30;41.40
44607;DHT22;30315;46.072;14.474;2023-04-23T15:19:17;26.50;40.80
44607;DHT22;30315;46.072;14.474;2023-04-23T15:21:45;26.60;40.50
44607;DHT22;30315;46.072;14.474;2023-04-23T15:24:14;26.80;40.60
44607;DHT22;30315;46.072;14.474;2023-04-23T15:26:42;26.90;39.60
44607;DHT22;30315;46.072;14.474;2023-04-23T15:29:09;27.10;39.50
44607;DHT22;30315;46.072;14.474;2023-04-23T15:31:39;27.20;39.80
44607;DHT22;30315;46.072;14.474;2023-04-23T15:34:10;27.30;39.50
44607;DHT22;30315;46.072;14.474;2023-04-23T15:36:38;27.40;39.30
44607;DHT22;30315;46.072;14.474;2023-04-23T15:39:06;27.50;38.90
44607;DHT22;30315;46.072;14.474;2023-04-23T15:41:34;27.60;39.00
44607;DHT22;30315;46.072;14.474;2023-04-23T15:44:08;27.70;38.60
44607;DHT22;30315;46.072;14.474;2023-04-23T15:46:36;27.70;39.00
44607;DHT22;30315;46.072;14.474;2023-04-23T15:49:04;27.90;38.90
44607;DHT22;30315;46.072;14.474;2023-04-23T15:51:31;27.90;38.40